sensor_id;sensor_type;location;lat;lon;timestamp;pressure;altitude;pressure_sealevel;temperature;humidity
68199;BME280;55021;51.554;17.044;2023-02-12T00:14:02;102098.59;;;6.57;85.41
68199;BME280;55021;51.554;17.044;2023-02-12T00:29:04;102131.03;;;7.00;84.03
68199;BME280;55021;51.554;17.044;2023-02-12T00:44:07;102156.91;;;7.02;83.72
68199;BME280;55021;51.554;17.044;2023-02-12T00:59:09;102145.78;;;7.08;82.83
68199;BME280;55021;51.554;17.044;2023-02-12T01:14:12;102183.84;;;6.71;84.88
68199;BME280;55021;51.554;17.044;2023-02-12T01:29:14;102207.25;;;6.38;86.29
68199;BME280;55021;51.554;17.044;2023-02-12T01:44:18;102219.97;;;6.82;83.86
68199;BME280;55021;51.554;17.044;2023-02-12T01:59:21;102197.00;;;6.28;85.73
68199;BME280;55021;51.554;17.044;2023-02-12T02:14:23;102218.81;;;6.55;84.15
68199;BME280;55021;51.554;17.044;2023-02-12T02:45:06;102210.38;;;6.13;85.48
68199;BME280;55021;51.554;17.044;2023-02-12T03:00:16;102276.38;;;6.01;87.94
68199;BME280;55021;51.554;17.044;2023-02-12T03:15:24;102292.38;;;5.87;87.57
68199;BME280;55021;51.554;17.044;2023-02-12T03:30:37;102305.91;;;6.53;84.19
68199;BME280;55021;51.554;17.044;2023-02-12T03:45:47;102340.13;;;6.66;83.95
68199;BME280;55021;51.554;17.044;2023-02-12T04:00:51;102363.50;;;6.64;83.28
68199;BME280;55021;51.554;17.044;2023-02-12T04:16:14;102390.34;;;6.49;83.96
68199;BME280;55021;51.554;17.044;2023-02-12T04:31:23;102382.94;;;6.19;84.48
68199;BME280;55021;51.554;17.044;2023-02-12T04:46:29;102389.78;;;6.42;82.78
68199;BME280;55021;51.554;17.044;2023-02-12T05:01:32;102416.22;;;6.51;82.77
68199;BME280;55021;51.554;17.044;2023-02-12T05:16:35;102442.75;;;6.23;82.76
68199;BME280;55021;51.554;17.044;2023-02-12T05:31:37;102423.41;;;6.51;82.07
68199;BME280;55021;51.554;17.044;2023-02-12T05:46:41;102472.41;;;7.07;79.89
68199;BME280;55021;51.554;17.044;2023-02-12T06:01:45;102463.81;;;6.32;81.65
68199;BME280;55021;51.554;17.044;2023-02-12T06:16:50;102523.63;;;7.21;78.05
68199;BME280;55021;51.554;17.044;2023-02-12T06:31:52;102559.41;;;6.38;81.22
68199;BME280;55021;51.554;17.044;2023-02-12T06:46:55;102577.97;;;6.25;82.26
68199;BME280;55021;51.554;17.044;2023-02-12T07:01:57;102594.00;;;6.08;82.98
68199;BME280;55021;51.554;17.044;2023-02-12T07:17:00;102537.41;;;5.36;85.27
68199;BME280;55021;51.554;17.044;2023-02-12T07:32:02;102603.00;;;6.80;79.58
68199;BME280;55021;51.554;17.044;2023-02-12T07:47:04;102612.59;;;7.53;76.96
68199;BME280;55021;51.554;17.044;2023-02-12T08:02:08;102628.47;;;8.07;74.76
68199;BME280;55021;51.554;17.044;2023-02-12T08:17:11;102647.94;;;7.64;76.10
68199;BME280;55021;51.554;17.044;2023-02-12T08:32:13;102649.84;;;7.62;76.33
68199;BME280;55021;51.554;17.044;2023-02-12T08:47:16;102659.59;;;7.47;76.57
68199;BME280;55021;51.554;17.044;2023-02-12T09:02:18;102661.97;;;8.19;75.06
68199;BME280;55021;51.554;17.044;2023-02-12T09:17:20;102672.03;;;8.15;74.97
68199;BME280;55021;51.554;17.044;2023-02-12T09:32:23;102698.56;;;7.90;74.49
68199;BME280;55021;51.554;17.044;2023-02-12T09:47:29;102698.50;;;8.57;73.67
68199;BME280;55021;51.554;17.044;2023-02-12T10:02:37;102715.66;;;8.06;75.08
68199;BME280;55021;51.554;17.044;2023-02-12T10:17:42;102706.28;;;7.97;74.16
68199;BME280;55021;51.554;17.044;2023-02-12T10:32:52;102712.03;;;8.07;75.00
68199;BME280;55021;51.554;17.044;2023-02-12T10:48:05;102715.25;;;7.81;76.46
68199;BME280;55021;51.554;17.044;2023-02-12T11:03:21;102693.41;;;8.51;74.32
68199;BME280;55021;51.554;17.044;2023-02-12T11:18:25;102671.59;;;8.71;73.44
68199;BME280;55021;51.554;17.044;2023-02-12T11:33:32;102629.22;;;7.61;78.12
68199;BME280;55021;51.554;17.044;2023-02-12T11:48:37;102669.66;;;8.89;73.09
68199;BME280;55021;51.554;17.044;2023-02-12T12:03:46;102670.69;;;8.55;73.64
68199;BME280;55021;51.554;17.044;2023-02-12T12:18:54;102679.91;;;8.98;73.17
68199;BME280;55021;51.554;17.044;2023-02-12T12:34:03;102674.03;;;8.76;72.31
68199;BME280;55021;51.554;17.044;2023-02-12T12:49:31;102663.63;;;8.99;72.15
68199;BME280;55021;51.554;17.044;2023-02-12T13:04:56;102647.19;;;9.48;68.29
68199;BME280;55021;51.554;17.044;2023-02-12T13:20:12;102631.44;;;9.40;68.71
68199;BME280;55021;51.554;17.044;2023-02-12T13:35:20;102632.78;;;9.33;68.58
68199;BME280;55021;51.554;17.044;2023-02-12T13:50:33;102634.31;;;9.07;70.12
68199;BME280;55021;51.554;17.044;2023-02-12T14:05:38;102626.72;;;8.53;68.44
68199;BME280;55021;51.554;17.044;2023-02-12T14:20:40;102638.69;;;8.64;67.30
68199;BME280;55021;51.554;17.044;2023-02-12T14:35:43;102623.25;;;8.51;68.13
68199;BME280;55021;51.554;17.044;2023-02-12T14:50:46;102613.16;;;8.54;66.79
68199;BME280;55021;51.554;17.044;2023-02-12T15:05:54;102637.22;;;8.59;68.16
68199;BME280;55021;51.554;17.044;2023-02-12T15:21:05;102650.28;;;8.96;66.17
68199;BME280;55021;51.554;17.044;2023-02-12T15:36:15;102668.25;;;8.50;68.02
68199;BME280;55021;51.554;17.044;2023-02-12T15:51:25;102672.25;;;8.43;68.49
68199;BME280;55021;51.554;17.044;2023-02-12T16:06:32;102666.53;;;8.81;67.13
68199;BME280;55021;51.554;17.044;2023-02-12T16:21:37;102674.69;;;8.48;67.96
68199;BME280;55021;51.554;17.044;2023-02-12T16:36:45;102673.50;;;8.69;67.19
68199;BME280;55021;51.554;17.044;2023-02-12T16:51:48;102690.88;;;8.48;68.44
68199;BME280;55021;51.554;17.044;2023-02-12T17:06:51;102679.53;;;8.74;67.23
68199;BME280;55021;51.554;17.044;2023-02-12T17:21:54;102691.47;;;8.37;68.82
68199;BME280;55021;51.554;17.044;2023-02-12T17:36:57;102702.94;;;8.74;67.54
68199;BME280;55021;51.554;17.044;2023-02-12T17:51:59;102703.97;;;8.71;67.93
68199;BME280;55021;51.554;17.044;2023-02-12T18:07:02;102707.28;;;8.60;67.96
68199;BME280;55021;51.554;17.044;2023-02-12T18:22:05;102698.50;;;8.57;68.94
68199;BME280;55021;51.554;17.044;2023-02-12T18:37:08;102697.09;;;8.17;71.15
68199;BME280;55021;51.554;17.044;2023-02-12T18:52:11;102680.06;;;8.32;70.30
68199;BME280;55021;51.554;17.044;2023-02-12T19:07:13;102693.25;;;8.05;72.13
68199;BME280;55021;51.554;17.044;2023-02-12T19:22:16;102702.41;;;7.86;72.88
68199;BME280;55021;51.554;17.044;2023-02-12T19:37:19;102678.53;;;7.45;74.74
68199;BME280;55021;51.554;17.044;2023-02-12T19:52:21;102699.41;;;7.06;79.20
68199;BME280;55021;51.554;17.044;2023-02-12T20:07:23;102693.56;;;7.32;79.15
68199;BME280;55021;51.554;17.044;2023-02-12T20:22:26;102704.56;;;7.28;79.19
68199;BME280;55021;51.554;17.044;2023-02-12T20:37:29;102710.75;;;7.13;79.95
68199;BME280;55021;51.554;17.044;2023-02-12T20:52:31;102702.47;;;7.84;77.57
68199;BME280;55021;51.554;17.044;2023-02-12T21:07:33;102691.53;;;7.37;79.10
68199;BME280;55021;51.554;17.044;2023-02-12T21:22:37;102690.25;;;7.44;78.91
68199;BME280;55021;51.554;17.044;2023-02-12T21:37:39;102690.16;;;7.46;79.50
68199;BME280;55021;51.554;17.044;2023-02-12T21:52:42;102694.44;;;7.50;79.35
68199;BME280;55021;51.554;17.044;2023-02-12T22:07:47;102677.88;;;7.58;78.88
68199;BME280;55021;51.554;17.044;2023-02-12T22:22:49;102677.94;;;7.22;79.69
68199;BME280;55021;51.554;17.044;2023-02-12T22:37:52;102689.44;;;7.60;78.59
68199;BME280;55021;51.554;17.044;2023-02-12T22:52:54;102698.53;;;7.57;78.29
68199;BME280;55021;51.554;17.044;2023-02-12T23:07:57;102684.69;;;7.48;78.42
68199;BME280;55021;51.554;17.044;2023-02-12T23:22:59;102688.88;;;7.36;79.07
68199;BME280;55021;51.554;17.044;2023-02-12T23:38:02;102684.28;;;7.38;78.06
68199;BME280;55021;51.554;17.044;2023-02-12T23:53:04;102670.38;;;7.13;78.80
